createdAt,value
2023-05-12T00:01:11.406Z,92.46
2023-05-12T00:03:41.762Z,92.46
2023-05-12T00:06:12.438Z,92.46
2023-05-12T00:08:43.324Z,92.23
2023-05-12T00:11:13.554Z,92.27
2023-05-12T00:13:44.078Z,92.12
2023-05-12T00:16:15.864Z,91.83
2023-05-12T00:18:46.202Z,91.76
2023-05-12T00:21:16.856Z,91.70
2023-05-12T00:23:47.082Z,91.59
2023-05-12T00:26:17.512Z,91.33
2023-05-12T00:28:48.805Z,91.41
2023-05-12T00:31:19.148Z,91.43
2023-05-12T00:33:49.330Z,91.69
2023-05-12T00:36:19.540Z,92.03
2023-05-12T00:38:49.740Z,91.85
2023-05-12T00:41:20.361Z,91.70
2023-05-12T00:43:50.555Z,91.71
2023-05-12T00:46:21.712Z,91.74
2023-05-12T00:48:52.550Z,91.72
2023-05-12T00:51:23.144Z,91.62
2023-05-12T00:53:53.450Z,91.68
2023-05-12T00:56:23.703Z,91.83
2023-05-12T00:58:54.127Z,91.78
2023-05-12T01:01:25.603Z,91.65
2023-05-12T01:03:57.928Z,91.67
2023-05-12T01:06:34.102Z,91.65
2023-05-12T01:09:05.135Z,91.83
2023-05-12T01:11:35.359Z,91.99
2023-05-12T01:14:05.943Z,92.08
2023-05-12T01:16:40.058Z,92.12
2023-05-12T01:19:16.606Z,92.24
2023-05-12T01:21:47.115Z,92.38
2023-05-12T01:24:18.684Z,92.33
2023-05-12T01:26:49.085Z,92.71
2023-05-12T01:29:20.543Z,93.01
2023-05-12T01:31:51.811Z,92.99
2023-05-12T01:34:22.889Z,92.79
2023-05-12T01:36:54.656Z,92.49
2023-05-12T01:39:24.999Z,92.43
2023-05-12T01:41:55.629Z,92.17
2023-05-12T01:44:26.066Z,92.32
2023-05-12T01:46:56.705Z,92.39
2023-05-12T01:49:27.327Z,91.89
2023-05-12T01:51:58.051Z,91.58
2023-05-12T01:54:33.769Z,91.46
2023-05-12T01:57:04.029Z,91.57
2023-05-12T01:59:34.595Z,91.54
2023-05-12T02:02:06.043Z,91.72
2023-05-12T02:04:37.639Z,91.73
2023-05-12T02:07:08.001Z,91.60
2023-05-12T02:09:38.251Z,91.64
2023-05-12T02:12:10.384Z,91.82
2023-05-12T02:14:40.650Z,91.73
2023-05-12T02:17:11.189Z,91.93
2023-05-12T02:19:42.080Z,92.07
2023-05-12T02:22:13.833Z,92.35
2023-05-12T02:24:44.245Z,92.36
2023-05-12T02:27:14.540Z,92.47
2023-05-12T02:29:44.723Z,92.69
2023-05-12T02:32:15.141Z,92.75
2023-05-12T02:34:47.277Z,92.83
2023-05-12T02:37:17.891Z,92.76
2023-05-12T02:39:48.339Z,92.95
2023-05-12T02:42:18.584Z,92.77
2023-05-12T02:44:48.872Z,92.98
2023-05-12T02:47:19.017Z,93.23
2023-05-12T02:49:49.160Z,93.29
2023-05-12T02:52:19.539Z,93.34
2023-05-12T02:54:50.427Z,93.38
2023-05-12T02:57:20.615Z,93.36
2023-05-12T02:59:50.967Z,93.59
2023-05-12T03:02:21.399Z,93.82
2023-05-12T03:04:51.877Z,93.95
2023-05-12T03:07:22.028Z,93.76
2023-05-12T03:09:52.566Z,93.81
2023-05-12T03:12:24.972Z,93.84
2023-05-12T03:14:55.687Z,93.91
2023-05-12T03:17:26.006Z,94.19
2023-05-12T03:19:57.022Z,94.31
2023-05-12T03:22:27.690Z,94.53
2023-05-12T03:24:59.384Z,94.43
2023-05-12T03:27:29.684Z,94.38
2023-05-12T03:30:01.077Z,93.98
2023-05-12T03:32:31.838Z,93.94
2023-05-12T03:35:02.222Z,93.88
2023-05-12T03:37:32.665Z,94.08
2023-05-12T03:40:03.291Z,94.33
2023-05-12T03:42:34.129Z,94.49
2023-05-12T03:45:05.372Z,94.58
2023-05-12T03:47:36.148Z,94.72
2023-05-12T03:50:09.648Z,95.06
2023-05-12T03:52:41.532Z,95.25
2023-05-12T03:55:12.642Z,95.20
2023-05-12T03:57:42.766Z,95.25
2023-05-12T04:00:15.494Z,95.51
2023-05-12T04:10:44.059Z,95.35
2023-05-12T04:13:14.570Z,95.34
2023-05-12T04:15:44.857Z,95.45
2023-05-12T04:18:15.778Z,95.31
2023-05-12T04:20:45.994Z,95.28
2023-05-12T04:23:16.501Z,95.35
2023-05-12T04:25:46.781Z,95.24
2023-05-12T04:28:17.364Z,94.95
2023-05-12T04:30:47.587Z,95.01
2023-05-12T04:33:17.737Z,95.07
2023-05-12T04:35:48.059Z,95.02
2023-05-12T04:38:18.243Z,94.93
2023-05-12T04:40:48.494Z,94.64
2023-05-12T04:45:54.251Z,94.27
2023-05-12T04:48:24.581Z,94.07
2023-05-12T04:50:54.808Z,93.98
2023-05-12T04:53:24.993Z,94.07
2023-05-12T04:55:56.628Z,94.03
2023-05-12T04:58:27.301Z,93.99
2023-05-12T05:00:58.162Z,93.88
2023-05-12T05:03:28.508Z,93.99
2023-05-12T05:05:59.058Z,94.19
2023-05-12T05:08:30.068Z,94.02
2023-05-12T05:11:00.544Z,94.03
2023-05-12T05:13:31.800Z,94.24
2023-05-12T05:16:02.199Z,94.06
2023-05-12T05:18:33.433Z,93.78
2023-05-12T05:21:03.809Z,93.65
2023-05-12T05:23:34.024Z,93.45
2023-05-12T05:26:04.376Z,93.32
2023-05-12T05:28:34.949Z,93.48
2023-05-12T05:31:05.437Z,93.33
2023-05-12T05:33:35.690Z,93.07
2023-05-12T05:36:07.453Z,92.88
2023-05-12T05:38:37.732Z,92.91
2023-05-12T05:41:08.326Z,93.10
2023-05-12T05:43:38.525Z,93.36
2023-05-12T05:46:09.929Z,93.45
2023-05-12T05:48:40.272Z,93.15
2023-05-12T05:51:13.545Z,93.01
2023-05-12T05:53:44.222Z,93.07
2023-05-12T05:56:14.889Z,93.22
2023-05-12T05:58:45.179Z,93.20
2023-05-12T06:01:15.585Z,93.28
2023-05-12T06:03:45.988Z,93.39
2023-05-12T06:06:16.392Z,93.43
2023-05-12T06:08:47.438Z,93.37
2023-05-12T06:11:18.047Z,93.30
2023-05-12T06:13:48.259Z,93.18
2023-05-12T06:16:18.472Z,92.96
2023-05-12T06:18:49.596Z,92.84
2023-05-12T06:21:19.920Z,92.69
2023-05-12T06:23:51.475Z,92.63
2023-05-12T06:26:21.974Z,92.52
2023-05-12T06:28:52.722Z,92.43
2023-05-12T06:31:23.049Z,91.83
2023-05-12T06:33:53.236Z,91.60
2023-05-12T06:36:23.663Z,91.23
2023-05-12T06:38:54.093Z,91.26
2023-05-12T06:41:25.225Z,91.02
2023-05-12T06:43:55.504Z,91.17
2023-05-12T06:46:30.978Z,91.03
2023-05-12T06:49:01.303Z,91.01
2023-05-12T06:51:31.605Z,91.25
2023-05-12T06:54:01.910Z,91.37
2023-05-12T06:56:34.586Z,90.96
2023-05-12T06:59:04.876Z,90.71
2023-05-12T07:01:35.390Z,90.49
2023-05-12T07:04:05.901Z,90.70
2023-05-12T07:06:37.017Z,90.38
2023-05-12T07:09:07.231Z,89.83
2023-05-12T07:11:37.792Z,89.13
2023-05-12T07:14:07.941Z,88.76
2023-05-12T07:16:38.285Z,88.49
2023-05-12T07:19:10.433Z,88.14
2023-05-12T07:21:41.088Z,87.49
2023-05-12T07:24:11.496Z,87.09
2023-05-12T07:26:41.727Z,86.61
2023-05-12T07:29:13.782Z,86.17
2023-05-12T07:31:44.405Z,85.78
2023-05-12T07:34:15.013Z,85.81
2023-05-12T07:36:45.435Z,86.14
2023-05-12T07:39:19.209Z,85.25
2023-05-12T07:41:49.424Z,84.64
2023-05-12T07:44:19.888Z,85.03
2023-05-12T07:46:50.579Z,84.79
2023-05-12T07:49:21.726Z,84.50
2023-05-12T07:51:51.984Z,84.45
2023-05-12T07:54:22.199Z,84.67
2023-05-12T07:56:52.589Z,85.20
2023-05-12T07:59:22.788Z,84.13
2023-05-12T08:01:54.048Z,84.22
2023-05-12T08:04:24.479Z,84.61
2023-05-12T08:06:54.894Z,84.93
2023-05-12T08:09:25.318Z,85.20
2023-05-12T08:11:55.666Z,84.97
2023-05-12T08:14:26.253Z,85.55
2023-05-12T08:16:56.443Z,85.18
2023-05-12T08:19:26.754Z,85.60
2023-05-12T08:21:57.045Z,85.51
2023-05-12T08:24:27.451Z,85.00
2023-05-12T08:26:57.707Z,84.14
2023-05-12T08:29:27.977Z,83.87
2023-05-12T08:31:58.409Z,83.71
2023-05-12T08:34:28.976Z,83.79
2023-05-12T08:36:59.158Z,82.45
2023-05-12T08:39:30.953Z,80.84
2023-05-12T08:42:09.261Z,80.37
2023-05-12T08:44:40.063Z,80.14
2023-05-12T08:47:10.980Z,79.37
2023-05-12T08:49:41.980Z,77.97
2023-05-12T08:52:12.935Z,77.79
2023-05-12T08:54:55.067Z,78.04
2023-05-12T08:57:29.450Z,78.80
2023-05-12T09:00:00.701Z,77.55
2023-05-12T09:02:44.685Z,77.22
2023-05-12T09:05:19.445Z,77.65
2023-05-12T09:07:51.366Z,78.19
2023-05-12T09:10:33.736Z,77.22
2023-05-12T09:13:09.757Z,75.11
2023-05-12T09:15:42.583Z,74.90
2023-05-12T09:18:12.825Z,73.77
2023-05-12T09:20:43.880Z,73.98
2023-05-12T09:23:21.988Z,72.97
2023-05-12T09:26:02.095Z,72.43
2023-05-12T09:28:38.762Z,71.35
2023-05-12T09:31:19.006Z,70.83
2023-05-12T09:33:49.393Z,68.96
2023-05-12T09:36:24.067Z,69.02
2023-05-12T09:39:05.323Z,69.07
2023-05-12T09:41:37.621Z,67.74
2023-05-12T09:44:08.708Z,68.27
2023-05-12T09:46:39.916Z,66.38
2023-05-12T09:49:11.593Z,64.92
2023-05-12T09:51:42.412Z,65.73
2023-05-12T09:54:12.701Z,65.00
2023-05-12T09:56:43.198Z,64.45
2023-05-12T09:59:14.328Z,62.66
2023-05-12T10:01:45.464Z,60.66
2023-05-12T10:04:15.906Z,60.30
2023-05-12T10:06:47.433Z,59.70
2023-05-12T10:09:51.004Z,58.69
2023-05-12T10:12:21.829Z,58.55
2023-05-12T10:14:52.337Z,58.26
2023-05-12T10:17:24.167Z,58.75
2023-05-12T10:19:55.044Z,59.60
2023-05-12T10:22:25.902Z,60.47
2023-05-12T10:24:56.991Z,61.61
2023-05-12T10:27:27.908Z,62.40
2023-05-12T10:29:58.553Z,62.62
2023-05-12T10:32:28.941Z,63.58
2023-05-12T10:35:09.850Z,64.97
2023-05-12T10:37:40.043Z,66.37
2023-05-12T10:40:12.039Z,67.42
2023-05-12T10:42:44.426Z,68.85
2023-05-12T10:45:21.369Z,68.97
2023-05-12T10:47:51.979Z,70.00
2023-05-12T10:50:30.518Z,71.49
2023-05-12T10:53:01.075Z,70.59
2023-05-12T10:55:35.896Z,70.69
2023-05-12T10:58:14.564Z,70.79
2023-05-12T11:00:50.840Z,70.70
2023-05-12T11:03:27.071Z,70.32
2023-05-12T11:06:05.184Z,71.49
2023-05-12T11:08:35.967Z,72.46
2023-05-12T11:11:07.224Z,72.93
2023-05-12T11:13:39.129Z,73.58
2023-05-12T11:16:15.195Z,74.16
2023-05-12T11:18:47.170Z,74.22
2023-05-12T11:21:19.105Z,73.72
2023-05-12T11:23:54.226Z,73.35
2023-05-12T11:26:27.191Z,73.38
2023-05-12T11:28:59.808Z,73.46
2023-05-12T11:31:32.491Z,74.24
2023-05-12T11:34:13.159Z,73.45
2023-05-12T11:36:47.993Z,72.77
2023-05-12T11:39:23.249Z,69.45
2023-05-12T11:42:05.516Z,68.90
2023-05-12T11:44:49.415Z,68.47
2023-05-12T11:47:24.280Z,67.62
2023-05-12T11:49:56.251Z,66.63
2023-05-12T11:52:29.255Z,67.81
2023-05-12T11:55:03.507Z,68.74
2023-05-12T11:57:37.285Z,68.37
2023-05-12T12:00:10.284Z,66.15
2023-05-12T12:02:44.283Z,64.08
2023-05-12T12:05:22.192Z,64.15
2023-05-12T12:07:54.286Z,63.25
2023-05-12T12:14:50.187Z,63.90
2023-05-12T12:17:20.557Z,65.69
2023-05-12T12:19:50.780Z,66.93
2023-05-12T12:22:21.055Z,67.08
2023-05-12T12:24:51.329Z,67.49
2023-05-12T12:27:21.897Z,68.26
2023-05-12T12:29:52.618Z,68.03
2023-05-12T12:32:22.903Z,68.91
2023-05-12T12:34:53.391Z,68.26
2023-05-12T12:37:23.553Z,68.92
2023-05-12T12:39:54.235Z,68.17
2023-05-12T12:42:24.412Z,66.81
2023-05-12T12:44:54.659Z,66.40
2023-05-12T12:47:24.862Z,66.26
2023-05-12T12:49:55.271Z,65.74
2023-05-12T12:52:25.533Z,64.40
2023-05-12T12:54:56.936Z,64.25
2023-05-12T12:57:27.275Z,63.81
2023-05-12T12:59:57.936Z,62.64
2023-05-12T13:02:28.297Z,62.22
2023-05-12T13:05:03.657Z,62.07
2023-05-12T13:07:34.501Z,61.66
2023-05-12T13:10:04.965Z,62.83
2023-05-12T13:12:35.602Z,63.16
2023-05-12T13:15:07.183Z,63.52
2023-05-12T13:17:37.576Z,62.68
2023-05-12T13:20:09.821Z,62.40
2023-05-12T13:22:40.064Z,62.15
2023-05-12T13:25:11.155Z,62.44
2023-05-12T13:27:41.371Z,63.55
2023-05-12T13:30:13.903Z,64.77
2023-05-12T13:32:44.362Z,65.42
2023-05-12T13:35:14.889Z,65.31
2023-05-12T13:37:45.085Z,65.80
2023-05-12T13:40:15.773Z,65.12
2023-05-12T13:42:45.933Z,65.16
2023-05-12T13:45:17.702Z,65.57
2023-05-12T13:47:49.235Z,65.48
2023-05-12T13:50:19.359Z,65.71
2023-05-12T13:52:49.540Z,65.72
2023-05-12T13:55:21.701Z,65.76
2023-05-12T13:57:52.462Z,65.81
2023-05-12T14:00:24.398Z,65.72
2023-05-12T14:02:54.683Z,64.04
2023-05-12T14:05:25.145Z,63.00
2023-05-12T14:07:55.656Z,62.93
2023-05-12T14:10:25.835Z,62.30
2023-05-12T14:12:56.525Z,62.06
2023-05-12T14:15:40.025Z,62.66
2023-05-12T14:18:15.079Z,62.39
2023-05-12T14:20:45.547Z,61.28
2023-05-12T14:23:16.589Z,60.42
2023-05-12T14:25:47.212Z,60.55
2023-05-12T14:28:17.446Z,59.97
2023-05-12T14:30:48.804Z,59.23
2023-05-12T14:33:19.261Z,59.42
2023-05-12T14:35:59.414Z,59.68
2023-05-12T14:38:36.729Z,59.80
2023-05-12T14:41:08.424Z,60.13
2023-05-12T14:43:39.071Z,60.16
2023-05-12T14:46:09.514Z,60.18
2023-05-12T14:48:39.794Z,59.49
2023-05-12T14:51:09.946Z,59.60
2023-05-12T14:53:40.182Z,60.41
2023-05-12T14:56:10.463Z,60.17
2023-05-12T14:58:40.679Z,59.13
2023-05-12T15:01:12.504Z,57.35
2023-05-12T15:03:43.568Z,57.26
2023-05-12T15:06:15.860Z,57.40
2023-05-12T15:08:46.701Z,57.31
2023-05-12T15:11:16.870Z,57.51
2023-05-12T15:13:47.334Z,56.83
2023-05-12T15:16:17.996Z,53.95
2023-05-12T15:18:48.429Z,50.76
2023-05-12T15:21:18.769Z,48.50
2023-05-12T15:23:49.206Z,48.45
2023-05-12T15:26:32.637Z,47.97
2023-05-12T15:29:04.285Z,48.25
2023-05-12T15:31:35.086Z,48.94
2023-05-12T15:34:05.484Z,49.54
2023-05-12T15:36:35.923Z,50.44
2023-05-12T15:39:06.235Z,51.25
2023-05-12T15:41:39.305Z,51.20
2023-05-12T15:44:09.600Z,51.57
2023-05-12T15:46:39.874Z,51.36
2023-05-12T15:49:10.124Z,52.32
2023-05-12T15:51:41.139Z,53.61
2023-05-12T15:54:12.092Z,53.93
2023-05-12T15:56:43.064Z,55.67
2023-05-12T15:59:13.383Z,56.45
2023-05-12T16:01:43.675Z,57.54
2023-05-12T16:04:14.099Z,57.25
2023-05-12T16:06:44.432Z,57.14
2023-05-12T16:09:14.663Z,57.40
2023-05-12T16:11:44.993Z,57.95
2023-05-12T16:14:16.129Z,59.45
2023-05-12T16:16:48.337Z,61.23
2023-05-12T16:19:19.008Z,61.95
2023-05-12T16:21:49.369Z,62.63
2023-05-12T16:24:20.249Z,62.85
2023-05-12T16:26:50.443Z,63.66
2023-05-12T16:29:20.603Z,64.09
2023-05-12T16:31:50.812Z,63.49
2023-05-12T16:34:24.997Z,64.39
2023-05-12T16:36:55.211Z,64.79
2023-05-12T16:39:42.637Z,65.21
2023-05-12T16:42:13.201Z,64.99
2023-05-12T16:44:43.519Z,65.65
2023-05-12T16:47:14.005Z,65.47
2023-05-12T16:49:44.282Z,65.44
2023-05-12T16:52:14.919Z,65.52
2023-05-12T16:54:45.355Z,65.62
2023-05-12T16:57:15.869Z,65.45
2023-05-12T16:59:48.000Z,64.67
2023-05-12T17:02:18.339Z,64.91
2023-05-12T17:04:48.655Z,64.68
2023-05-12T17:07:18.956Z,64.74
2023-05-12T17:09:49.211Z,64.51
2023-05-12T17:12:19.393Z,65.03
2023-05-12T17:14:56.086Z,65.44
2023-05-12T17:17:37.542Z,65.37
2023-05-12T17:20:09.706Z,64.67
2023-05-12T17:22:43.982Z,64.65
2023-05-12T17:25:14.164Z,64.97
2023-05-12T17:27:44.328Z,64.59
2023-05-12T17:30:15.494Z,64.83
2023-05-12T17:32:45.876Z,64.81
2023-05-12T17:35:16.178Z,65.17
2023-05-12T17:37:47.854Z,64.94
2023-05-12T17:40:18.785Z,65.04
2023-05-12T17:42:50.152Z,65.10
2023-05-12T17:45:20.713Z,65.43
2023-05-12T17:47:51.250Z,65.37
2023-05-12T17:50:21.880Z,65.55
2023-05-12T17:52:53.815Z,65.44
2023-05-12T17:55:24.918Z,64.80
2023-05-12T17:57:55.772Z,65.01
2023-05-12T18:00:26.472Z,65.43
2023-05-12T18:02:57.571Z,65.16
2023-05-12T18:05:28.432Z,65.03
2023-05-12T18:07:58.646Z,64.97
2023-05-12T18:10:29.240Z,65.71
2023-05-12T18:12:59.823Z,66.15
2023-05-12T18:15:30.272Z,66.16
2023-05-12T18:18:01.507Z,66.38
2023-05-12T18:20:32.013Z,66.94
2023-05-12T18:23:02.601Z,66.57
2023-05-12T18:25:32.990Z,66.74
2023-05-12T18:28:03.295Z,66.96
2023-05-12T18:30:33.733Z,67.06
2023-05-12T18:33:04.005Z,67.29
2023-05-12T18:35:36.439Z,67.02
2023-05-12T18:38:07.131Z,66.92
2023-05-12T18:40:37.342Z,67.26
2023-05-12T18:43:08.712Z,67.37
2023-05-12T18:45:38.998Z,67.43
2023-05-12T18:48:09.316Z,67.57
2023-05-12T18:50:39.630Z,67.75
2023-05-12T18:53:10.249Z,67.88
2023-05-12T18:55:40.701Z,67.87
2023-05-12T18:58:11.130Z,68.01
2023-05-12T19:00:42.150Z,68.15
2023-05-12T19:03:12.749Z,68.03
2023-05-12T19:05:44.570Z,68.13
2023-05-12T19:08:14.973Z,68.18
2023-05-12T19:10:47.145Z,68.21
2023-05-12T19:13:17.392Z,68.69
2023-05-12T19:15:47.634Z,68.62
2023-05-12T19:18:17.882Z,68.67
2023-05-12T19:20:48.086Z,68.91
2023-05-12T19:23:18.585Z,69.17
2023-05-12T19:25:48.965Z,69.14
2023-05-12T19:28:19.195Z,69.07
2023-05-12T19:30:49.463Z,69.08
2023-05-12T19:33:19.736Z,69.28
2023-05-12T19:35:50.169Z,69.05
2023-05-12T19:38:20.674Z,69.39
2023-05-12T19:40:51.020Z,69.26
2023-05-12T19:43:21.714Z,69.20
2023-05-12T19:45:54.997Z,69.01
2023-05-12T19:48:25.229Z,69.06
2023-05-12T19:50:55.663Z,69.30
2023-05-12T19:53:26.665Z,69.42
2023-05-12T19:55:57.487Z,69.42
2023-05-12T19:58:27.778Z,69.56
2023-05-12T20:00:57.940Z,69.70
2023-05-12T20:03:28.898Z,69.78
2023-05-12T20:05:59.422Z,69.65
2023-05-12T20:08:29.545Z,69.71
2023-05-12T20:10:59.910Z,69.84
2023-05-12T20:13:30.208Z,70.05
2023-05-12T20:16:00.713Z,70.26
2023-05-12T20:18:30.943Z,70.37
2023-05-12T20:21:01.218Z,70.63
2023-05-12T20:23:31.456Z,70.75
2023-05-12T20:26:01.799Z,70.92
2023-05-12T20:28:31.989Z,71.08
2023-05-12T20:31:02.242Z,71.29
2023-05-12T20:33:32.939Z,71.43
2023-05-12T20:36:03.065Z,71.62
2023-05-12T20:38:33.283Z,71.64
2023-05-12T20:41:07.036Z,71.74
2023-05-12T20:43:37.276Z,71.86
2023-05-12T20:49:41.236Z,71.90
2023-05-12T20:52:11.396Z,71.79
2023-05-12T20:54:41.566Z,71.94
2023-05-12T20:57:12.382Z,71.86
2023-05-12T20:59:42.613Z,72.04
2023-05-12T21:02:13.173Z,71.92
2023-05-12T21:04:43.696Z,72.07
2023-05-12T21:07:13.892Z,72.07
2023-05-12T21:09:44.158Z,72.10
2023-05-12T21:12:14.391Z,72.17
2023-05-12T21:14:46.271Z,72.04
2023-05-12T21:17:17.398Z,71.87
2023-05-12T21:19:47.636Z,71.74
2023-05-12T21:22:17.879Z,71.74
2023-05-12T21:24:49.823Z,71.78
2023-05-12T21:27:21.281Z,71.75
2023-05-12T21:29:51.369Z,71.60
2023-05-12T21:32:22.030Z,71.69
2023-05-12T21:34:52.133Z,71.56
2023-05-12T21:37:22.185Z,71.28
2023-05-12T21:39:52.376Z,71.16
2023-05-12T21:42:22.515Z,71.19
2023-05-12T21:44:53.101Z,71.28
2023-05-12T21:47:23.639Z,71.10
2023-05-12T21:49:56.805Z,70.84
2023-05-12T21:52:27.921Z,70.85
2023-05-12T21:54:58.063Z,70.69
2023-05-12T21:57:28.232Z,70.73
2023-05-12T22:00:02.325Z,70.46
2023-05-12T22:02:39.617Z,70.33
2023-05-12T22:05:10.924Z,70.14
2023-05-12T22:07:41.347Z,70.04
2023-05-12T22:10:13.231Z,69.64
2023-05-12T22:12:43.569Z,69.53
2023-05-12T22:15:14.088Z,69.48
2023-05-12T22:17:45.476Z,69.42
2023-05-12T22:20:16.582Z,69.38
2023-05-12T22:22:47.114Z,69.58
2023-05-12T22:25:17.827Z,69.45
2023-05-12T22:27:48.137Z,69.54
2023-05-12T22:30:18.898Z,69.38
2023-05-12T22:32:49.269Z,69.54
2023-05-12T22:35:19.788Z,69.43
2023-05-12T22:37:50.049Z,69.12
2023-05-12T22:40:21.367Z,69.27
2023-05-12T22:42:51.630Z,69.13
2023-05-12T22:45:22.023Z,69.23
2023-05-12T22:47:52.234Z,69.16
2023-05-12T22:50:23.091Z,69.04
2023-05-12T22:52:57.056Z,69.02
2023-05-12T22:55:30.297Z,68.69
2023-05-12T22:58:01.099Z,68.90
2023-05-12T23:00:31.302Z,68.69
2023-05-12T23:03:03.204Z,68.58
2023-05-12T23:05:33.542Z,68.49
2023-05-12T23:08:04.098Z,68.55
2023-05-12T23:10:34.244Z,68.40
2023-05-12T23:13:04.987Z,68.33
2023-05-12T23:15:35.085Z,68.09
2023-05-12T23:18:05.520Z,67.97
2023-05-12T23:20:35.897Z,67.86
2023-05-12T23:23:06.942Z,67.51
2023-05-12T23:25:38.618Z,67.03
2023-05-12T23:28:08.729Z,66.89
2023-05-12T23:30:38.957Z,66.72
2023-05-12T23:33:09.349Z,65.78
2023-05-12T23:35:39.614Z,64.48
2023-05-12T23:38:09.832Z,64.30
2023-05-12T23:40:39.942Z,64.78
2023-05-12T23:43:10.404Z,64.98
2023-05-12T23:45:41.726Z,64.86
2023-05-12T23:48:12.092Z,65.18
2023-05-12T23:50:42.519Z,65.70
2023-05-12T23:53:14.454Z,65.70
2023-05-12T23:55:44.779Z,65.99
2023-05-12T23:58:17.801Z,65.93
